sensor_id;sensor_type;location;lat;lon;timestamp;P1;durP1;ratioP1;P2;durP2;ratioP2
71637;SDS011;59485;43.542;-5.676;2022-10-31T00:01:43;13.63;;;5.57;;
71637;SDS011;59485;43.542;-5.676;2022-10-31T00:04:09;12.35;;;5.30;;
71637;SDS011;59485;43.542;-5.676;2022-10-31T00:06:34;11.50;;;5.03;;
71637;SDS011;59485;43.542;-5.676;2022-10-31T00:09:00;9.60;;;4.10;;
71637;SDS011;59485;43.542;-5.676;2022-10-31T00:11:34;10.98;;;4.22;;
71637;SDS011;59485;43.542;-5.676;2022-10-31T00:14:00;15.65;;;4.50;;
71637;SDS011;59485;43.542;-5.676;2022-10-31T00:16:26;9.75;;;4.57;;
71637;SDS011;59485;43.542;-5.676;2022-10-31T00:18:53;8.27;;;3.80;;
71637;SDS011;59485;43.542;-5.676;2022-10-31T00:21:24;9.77;;;4.00;;
71637;SDS011;59485;43.542;-5.676;2022-10-31T00:23:53;9.18;;;4.03;;
71637;SDS011;59485;43.542;-5.676;2022-10-31T00:26:18;8.97;;;4.20;;
71637;SDS011;59485;43.542;-5.676;2022-10-31T00:28:44;12.15;;;3.28;;
71637;SDS011;59485;43.542;-5.676;2022-10-31T00:31:11;11.83;;;4.40;;
71637;SDS011;59485;43.542;-5.676;2022-10-31T00:33:38;9.97;;;4.13;;
71637;SDS011;59485;43.542;-5.676;2022-10-31T00:36:05;11.73;;;3.63;;
71637;SDS011;59485;43.542;-5.676;2022-10-31T00:38:32;8.23;;;3.85;;
71637;SDS011;59485;43.542;-5.676;2022-10-31T00:40:57;7.35;;;3.00;;
71637;SDS011;59485;43.542;-5.676;2022-10-31T00:43:23;10.07;;;3.80;;
71637;SDS011;59485;43.542;-5.676;2022-10-31T00:45:49;8.65;;;3.65;;
71637;SDS011;59485;43.542;-5.676;2022-10-31T00:48:14;7.97;;;2.93;;
71637;SDS011;59485;43.542;-5.676;2022-10-31T00:50:41;8.73;;;2.93;;
71637;SDS011;59485;43.542;-5.676;2022-10-31T00:53:07;6.85;;;3.03;;
71637;SDS011;59485;43.542;-5.676;2022-10-31T00:58:06;8.23;;;3.17;;
71637;SDS011;59485;43.542;-5.676;2022-10-31T01:00:32;8.93;;;3.35;;
71637;SDS011;59485;43.542;-5.676;2022-10-31T01:02:57;6.40;;;3.03;;
71637;SDS011;59485;43.542;-5.676;2022-10-31T01:05:22;9.73;;;3.15;;
71637;SDS011;59485;43.542;-5.676;2022-10-31T01:07:48;6.20;;;2.30;;
71637;SDS011;59485;43.542;-5.676;2022-10-31T01:10:13;8.30;;;2.43;;
71637;SDS011;59485;43.542;-5.676;2022-10-31T01:15:06;7.77;;;2.70;;
71637;SDS011;59485;43.542;-5.676;2022-10-31T01:17:33;9.75;;;2.60;;
71637;SDS011;59485;43.542;-5.676;2022-10-31T01:19:59;6.32;;;2.25;;
71637;SDS011;59485;43.542;-5.676;2022-10-31T01:22:24;7.53;;;2.17;;
71637;SDS011;59485;43.542;-5.676;2022-10-31T01:24:50;6.63;;;2.63;;
71637;SDS011;59485;43.542;-5.676;2022-10-31T01:27:15;8.17;;;2.30;;
71637;SDS011;59485;43.542;-5.676;2022-10-31T01:29:41;8.50;;;2.57;;
71637;SDS011;59485;43.542;-5.676;2022-10-31T01:32:06;8.80;;;2.33;;
71637;SDS011;59485;43.542;-5.676;2022-10-31T01:34:32;8.63;;;2.67;;
71637;SDS011;59485;43.542;-5.676;2022-10-31T01:36:57;6.23;;;2.27;;
71637;SDS011;59485;43.542;-5.676;2022-10-31T01:39:23;8.43;;;3.17;;
71637;SDS011;59485;43.542;-5.676;2022-10-31T01:41:50;7.07;;;2.72;;
71637;SDS011;59485;43.542;-5.676;2022-10-31T01:46:59;7.10;;;2.00;;
71637;SDS011;59485;43.542;-5.676;2022-10-31T01:54:59;7.32;;;2.53;;
71637;SDS011;59485;43.542;-5.676;2022-10-31T01:57:30;4.70;;;1.80;;
71637;SDS011;59485;43.542;-5.676;2022-10-31T02:00:04;7.32;;;2.10;;
71637;SDS011;59485;43.542;-5.676;2022-10-31T02:02:41;6.60;;;2.00;;
71637;SDS011;59485;43.542;-5.676;2022-10-31T02:05:09;6.03;;;1.80;;
71637;SDS011;59485;43.542;-5.676;2022-10-31T02:10:34;4.85;;;1.90;;
71637;SDS011;59485;43.542;-5.676;2022-10-31T02:13:02;4.13;;;1.75;;
71637;SDS011;59485;43.542;-5.676;2022-10-31T02:15:29;7.50;;;3.00;;
71637;SDS011;59485;43.542;-5.676;2022-10-31T02:17:56;7.53;;;2.20;;
71637;SDS011;59485;43.542;-5.676;2022-10-31T02:20:23;6.40;;;2.60;;
71637;SDS011;59485;43.542;-5.676;2022-10-31T02:25:45;12.65;;;3.40;;
71637;SDS011;59485;43.542;-5.676;2022-10-31T02:39:36;10.20;;;3.97;;
71637;SDS011;59485;43.542;-5.676;2022-10-31T02:42:31;11.48;;;3.95;;
71637;SDS011;59485;43.542;-5.676;2022-10-31T02:47:39;7.82;;;2.90;;
71637;SDS011;59485;43.542;-5.676;2022-10-31T02:50:21;9.60;;;3.03;;
71637;SDS011;59485;43.542;-5.676;2022-10-31T02:58:04;6.63;;;2.50;;
71637;SDS011;59485;43.542;-5.676;2022-10-31T03:00:33;8.45;;;3.20;;
71637;SDS011;59485;43.542;-5.676;2022-10-31T03:03:10;6.73;;;2.77;;
71637;SDS011;59485;43.542;-5.676;2022-10-31T03:06:02;6.97;;;2.33;;
71637;SDS011;59485;43.542;-5.676;2022-10-31T03:11:05;6.13;;;2.58;;
71637;SDS011;59485;43.542;-5.676;2022-10-31T03:21:49;7.20;;;2.80;;
71637;SDS011;59485;43.542;-5.676;2022-10-31T03:24:24;7.65;;;3.05;;
71637;SDS011;59485;43.542;-5.676;2022-10-31T03:29:32;6.47;;;2.20;;
71637;SDS011;59485;43.542;-5.676;2022-10-31T03:34:37;9.18;;;2.78;;
71637;SDS011;59485;43.542;-5.676;2022-10-31T03:37:06;6.70;;;2.80;;
71637;SDS011;59485;43.542;-5.676;2022-10-31T03:39:36;10.15;;;2.65;;
71637;SDS011;59485;43.542;-5.676;2022-10-31T03:42:14;9.47;;;2.20;;
71637;SDS011;59485;43.542;-5.676;2022-10-31T03:44:45;8.27;;;2.05;;
71637;SDS011;59485;43.542;-5.676;2022-10-31T03:47:15;6.22;;;2.70;;
71637;SDS011;59485;43.542;-5.676;2022-10-31T03:49:41;7.80;;;3.03;;
71637;SDS011;59485;43.542;-5.676;2022-10-31T03:52:13;8.17;;;2.73;;
71637;SDS011;59485;43.542;-5.676;2022-10-31T03:57:57;8.98;;;2.47;;
71637;SDS011;59485;43.542;-5.676;2022-10-31T04:00:28;7.00;;;2.92;;
71637;SDS011;59485;43.542;-5.676;2022-10-31T04:05:45;6.25;;;3.47;;
71637;SDS011;59485;43.542;-5.676;2022-10-31T04:08:15;6.47;;;3.50;;
71637;SDS011;59485;43.542;-5.676;2022-10-31T04:10:44;7.18;;;3.28;;
71637;SDS011;59485;43.542;-5.676;2022-10-31T04:13:14;7.22;;;2.92;;
71637;SDS011;59485;43.542;-5.676;2022-10-31T04:15:45;5.77;;;3.07;;
71637;SDS011;59485;43.542;-5.676;2022-10-31T04:20:40;7.13;;;2.75;;
71637;SDS011;59485;43.542;-5.676;2022-10-31T04:25:31;9.98;;;3.92;;
71637;SDS011;59485;43.542;-5.676;2022-10-31T04:27:57;8.87;;;4.07;;
71637;SDS011;59485;43.542;-5.676;2022-10-31T04:30:22;8.40;;;3.17;;
71637;SDS011;59485;43.542;-5.676;2022-10-31T04:32:48;6.78;;;2.83;;
71637;SDS011;59485;43.542;-5.676;2022-10-31T04:35:13;8.30;;;3.30;;
71637;SDS011;59485;43.542;-5.676;2022-10-31T04:37:39;9.47;;;4.27;;
71637;SDS011;59485;43.542;-5.676;2022-10-31T04:42:40;8.25;;;3.72;;
71637;SDS011;59485;43.542;-5.676;2022-10-31T05:00:26;11.57;;;5.05;;
71637;SDS011;59485;43.542;-5.676;2022-10-31T05:02:53;11.23;;;5.53;;
71637;SDS011;59485;43.542;-5.676;2022-10-31T05:05:41;12.52;;;5.10;;
71637;SDS011;59485;43.542;-5.676;2022-10-31T05:10:47;10.25;;;4.55;;
71637;SDS011;59485;43.542;-5.676;2022-10-31T05:15:39;8.70;;;4.43;;
71637;SDS011;59485;43.542;-5.676;2022-10-31T05:20:30;9.65;;;4.05;;
71637;SDS011;59485;43.542;-5.676;2022-10-31T05:22:57;8.82;;;3.75;;
71637;SDS011;59485;43.542;-5.676;2022-10-31T05:25:41;10.63;;;3.40;;
71637;SDS011;59485;43.542;-5.676;2022-10-31T05:33:35;9.30;;;3.33;;
71637;SDS011;59485;43.542;-5.676;2022-10-31T05:52:08;8.23;;;3.50;;
71637;SDS011;59485;43.542;-5.676;2022-10-31T05:54:34;7.70;;;3.20;;
71637;SDS011;59485;43.542;-5.676;2022-10-31T05:57:01;7.20;;;3.90;;
71637;SDS011;59485;43.542;-5.676;2022-10-31T05:59:26;8.70;;;3.80;;
71637;SDS011;59485;43.542;-5.676;2022-10-31T06:01:52;7.70;;;3.20;;
71637;SDS011;59485;43.542;-5.676;2022-10-31T06:04:17;9.67;;;3.23;;
71637;SDS011;59485;43.542;-5.676;2022-10-31T06:06:43;8.17;;;3.30;;
71637;SDS011;59485;43.542;-5.676;2022-10-31T06:09:08;9.02;;;3.65;;
71637;SDS011;59485;43.542;-5.676;2022-10-31T06:11:34;8.30;;;3.13;;
71637;SDS011;59485;43.542;-5.676;2022-10-31T06:14:00;10.95;;;3.63;;
71637;SDS011;59485;43.542;-5.676;2022-10-31T06:16:25;5.90;;;2.47;;
71637;SDS011;59485;43.542;-5.676;2022-10-31T06:18:51;7.10;;;3.13;;
71637;SDS011;59485;43.542;-5.676;2022-10-31T06:23:41;8.25;;;3.13;;
71637;SDS011;59485;43.542;-5.676;2022-10-31T06:26:07;7.50;;;3.20;;
71637;SDS011;59485;43.542;-5.676;2022-10-31T06:28:32;7.33;;;2.67;;
71637;SDS011;59485;43.542;-5.676;2022-10-31T06:30:58;6.93;;;2.97;;
71637;SDS011;59485;43.542;-5.676;2022-10-31T06:33:23;7.93;;;2.77;;
71637;SDS011;59485;43.542;-5.676;2022-10-31T06:35:49;7.10;;;2.67;;
71637;SDS011;59485;43.542;-5.676;2022-10-31T06:38:14;8.00;;;3.50;;
71637;SDS011;59485;43.542;-5.676;2022-10-31T06:40:40;7.90;;;2.93;;
71637;SDS011;59485;43.542;-5.676;2022-10-31T06:43:05;8.90;;;3.40;;
71637;SDS011;59485;43.542;-5.676;2022-10-31T06:45:31;9.13;;;3.17;;
71637;SDS011;59485;43.542;-5.676;2022-10-31T06:47:59;11.70;;;4.80;;
71637;SDS011;59485;43.542;-5.676;2022-10-31T06:50:34;7.40;;;3.88;;
71637;SDS011;59485;43.542;-5.676;2022-10-31T06:53:00;9.73;;;3.40;;
71637;SDS011;59485;43.542;-5.676;2022-10-31T06:55:25;9.98;;;3.33;;
71637;SDS011;59485;43.542;-5.676;2022-10-31T06:57:56;12.27;;;3.43;;
71637;SDS011;59485;43.542;-5.676;2022-10-31T07:00:23;8.77;;;3.20;;
71637;SDS011;59485;43.542;-5.676;2022-10-31T07:02:53;7.97;;;2.78;;
71637;SDS011;59485;43.542;-5.676;2022-10-31T07:05:29;6.97;;;2.70;;
71637;SDS011;59485;43.542;-5.676;2022-10-31T07:07:56;7.95;;;3.50;;
71637;SDS011;59485;43.542;-5.676;2022-10-31T07:10:24;10.73;;;3.60;;
71637;SDS011;59485;43.542;-5.676;2022-10-31T07:12:54;8.48;;;2.97;;
71637;SDS011;59485;43.542;-5.676;2022-10-31T07:15:20;11.20;;;4.28;;
71637;SDS011;59485;43.542;-5.676;2022-10-31T07:17:46;8.70;;;3.60;;
71637;SDS011;59485;43.542;-5.676;2022-10-31T07:20:11;8.75;;;3.95;;
71637;SDS011;59485;43.542;-5.676;2022-10-31T07:22:37;10.10;;;4.67;;
71637;SDS011;59485;43.542;-5.676;2022-10-31T07:25:03;13.38;;;4.50;;
71637;SDS011;59485;43.542;-5.676;2022-10-31T07:27:29;11.67;;;4.40;;
71637;SDS011;59485;43.542;-5.676;2022-10-31T07:30:00;13.20;;;4.55;;
71637;SDS011;59485;43.542;-5.676;2022-10-31T07:32:26;9.57;;;4.35;;
71637;SDS011;59485;43.542;-5.676;2022-10-31T07:34:52;10.57;;;5.30;;
71637;SDS011;59485;43.542;-5.676;2022-10-31T07:37:17;11.43;;;5.53;;
71637;SDS011;59485;43.542;-5.676;2022-10-31T07:39:42;11.53;;;5.27;;
71637;SDS011;59485;43.542;-5.676;2022-10-31T07:42:08;7.30;;;3.45;;
71637;SDS011;59485;43.542;-5.676;2022-10-31T07:47:09;8.68;;;3.40;;
71637;SDS011;59485;43.542;-5.676;2022-10-31T07:49:46;7.40;;;2.97;;
71637;SDS011;59485;43.542;-5.676;2022-10-31T07:52:12;9.50;;;3.33;;
71637;SDS011;59485;43.542;-5.676;2022-10-31T07:54:37;9.17;;;3.37;;
71637;SDS011;59485;43.542;-5.676;2022-10-31T07:57:03;10.80;;;3.20;;
71637;SDS011;59485;43.542;-5.676;2022-10-31T07:59:28;13.07;;;2.60;;
71637;SDS011;59485;43.542;-5.676;2022-10-31T08:01:54;8.80;;;1.93;;
71637;SDS011;59485;43.542;-5.676;2022-10-31T08:04:19;8.57;;;1.80;;
71637;SDS011;59485;43.542;-5.676;2022-10-31T08:06:45;4.43;;;1.33;;
71637;SDS011;59485;43.542;-5.676;2022-10-31T08:09:19;5.35;;;1.70;;
71637;SDS011;59485;43.542;-5.676;2022-10-31T08:11:44;9.55;;;2.70;;
71637;SDS011;59485;43.542;-5.676;2022-10-31T08:14:09;6.20;;;2.03;;
71637;SDS011;59485;43.542;-5.676;2022-10-31T08:16:35;11.50;;;3.87;;
71637;SDS011;59485;43.542;-5.676;2022-10-31T08:19:00;7.20;;;3.00;;
71637;SDS011;59485;43.542;-5.676;2022-10-31T08:21:26;11.95;;;4.70;;
71637;SDS011;59485;43.542;-5.676;2022-10-31T08:23:51;15.63;;;6.83;;
71637;SDS011;59485;43.542;-5.676;2022-10-31T08:26:17;15.13;;;5.93;;
71637;SDS011;59485;43.542;-5.676;2022-10-31T08:31:12;15.20;;;6.10;;
71637;SDS011;59485;43.542;-5.676;2022-10-31T08:33:37;16.55;;;7.50;;
71637;SDS011;59485;43.542;-5.676;2022-10-31T08:36:15;18.07;;;6.90;;
71637;SDS011;59485;43.542;-5.676;2022-10-31T08:38:40;17.30;;;7.50;;
71637;SDS011;59485;43.542;-5.676;2022-10-31T08:41:18;17.42;;;6.97;;
71637;SDS011;59485;43.542;-5.676;2022-10-31T08:43:43;15.77;;;6.53;;
71637;SDS011;59485;43.542;-5.676;2022-10-31T08:46:09;18.33;;;7.20;;
71637;SDS011;59485;43.542;-5.676;2022-10-31T08:51:12;16.63;;;7.97;;
71637;SDS011;59485;43.542;-5.676;2022-10-31T08:53:41;21.13;;;9.20;;
71637;SDS011;59485;43.542;-5.676;2022-10-31T08:56:09;21.05;;;9.85;;
71637;SDS011;59485;43.542;-5.676;2022-10-31T08:58:35;24.45;;;9.23;;
71637;SDS011;59485;43.542;-5.676;2022-10-31T09:01:01;21.00;;;9.90;;
71637;SDS011;59485;43.542;-5.676;2022-10-31T09:03:27;25.30;;;9.48;;
71637;SDS011;59485;43.542;-5.676;2022-10-31T09:05:58;16.77;;;8.48;;
71637;SDS011;59485;43.542;-5.676;2022-10-31T09:08:30;25.20;;;9.73;;
71637;SDS011;59485;43.542;-5.676;2022-10-31T09:10:58;18.30;;;10.33;;
71637;SDS011;59485;43.542;-5.676;2022-10-31T09:13:36;22.02;;;9.45;;
71637;SDS011;59485;43.542;-5.676;2022-10-31T09:16:07;15.40;;;7.85;;
71637;SDS011;59485;43.542;-5.676;2022-10-31T09:18:39;18.38;;;6.13;;
71637;SDS011;59485;43.542;-5.676;2022-10-31T09:21:05;18.85;;;7.60;;
71637;SDS011;59485;43.542;-5.676;2022-10-31T09:23:30;19.20;;;6.97;;
71637;SDS011;59485;43.542;-5.676;2022-10-31T09:26:05;20.47;;;6.97;;
71637;SDS011;59485;43.542;-5.676;2022-10-31T09:28:31;21.33;;;6.55;;
71637;SDS011;59485;43.542;-5.676;2022-10-31T09:31:00;32.75;;;8.60;;
71637;SDS011;59485;43.542;-5.676;2022-10-31T09:33:26;28.02;;;12.27;;
71637;SDS011;59485;43.542;-5.676;2022-10-31T09:35:51;40.63;;;16.30;;
71637;SDS011;59485;43.542;-5.676;2022-10-31T09:38:26;44.17;;;18.57;;
71637;SDS011;59485;43.542;-5.676;2022-10-31T09:49:23;27.75;;;10.23;;
71637;SDS011;59485;43.542;-5.676;2022-10-31T10:00:20;16.15;;;5.10;;
71637;SDS011;59485;43.542;-5.676;2022-10-31T10:05:17;17.08;;;5.72;;
71637;SDS011;59485;43.542;-5.676;2022-10-31T10:07:53;25.95;;;9.55;;
71637;SDS011;59485;43.542;-5.676;2022-10-31T10:13:31;19.93;;;7.37;;
71637;SDS011;59485;43.542;-5.676;2022-10-31T10:22:19;10.57;;;4.65;;
71637;SDS011;59485;43.542;-5.676;2022-10-31T10:24:56;12.20;;;4.72;;
71637;SDS011;59485;43.542;-5.676;2022-10-31T10:36:06;13.27;;;3.90;;
71637;SDS011;59485;43.542;-5.676;2022-10-31T10:41:04;14.03;;;6.10;;
71637;SDS011;59485;43.542;-5.676;2022-10-31T10:43:34;10.77;;;5.90;;
71637;SDS011;59485;43.542;-5.676;2022-10-31T10:46:16;14.97;;;6.10;;
71637;SDS011;59485;43.542;-5.676;2022-10-31T10:59:54;17.33;;;7.03;;
71637;SDS011;59485;43.542;-5.676;2022-10-31T11:17:52;11.65;;;3.30;;
71637;SDS011;59485;43.542;-5.676;2022-10-31T11:20:35;7.78;;;2.72;;
71637;SDS011;59485;43.542;-5.676;2022-10-31T11:31:08;6.55;;;2.40;;
71637;SDS011;59485;43.542;-5.676;2022-10-31T11:33:39;5.70;;;1.85;;
71637;SDS011;59485;43.542;-5.676;2022-10-31T11:36:32;8.65;;;2.50;;
71637;SDS011;59485;43.542;-5.676;2022-10-31T11:39:01;6.53;;;2.20;;
71637;SDS011;59485;43.542;-5.676;2022-10-31T11:41:29;3.42;;;1.15;;
71637;SDS011;59485;43.542;-5.676;2022-10-31T11:43:58;8.80;;;1.95;;
71637;SDS011;59485;43.542;-5.676;2022-10-31T11:48:56;4.32;;;1.23;;
71637;SDS011;59485;43.542;-5.676;2022-10-31T11:51:22;4.03;;;1.03;;
71637;SDS011;59485;43.542;-5.676;2022-10-31T11:53:51;3.67;;;1.38;;
71637;SDS011;59485;43.542;-5.676;2022-10-31T11:56:19;8.35;;;1.90;;
71637;SDS011;59485;43.542;-5.676;2022-10-31T11:58:54;8.37;;;1.47;;
71637;SDS011;59485;43.542;-5.676;2022-10-31T12:01:27;5.70;;;1.50;;
71637;SDS011;59485;43.542;-5.676;2022-10-31T12:04:00;6.97;;;1.75;;
71637;SDS011;59485;43.542;-5.676;2022-10-31T12:06:36;4.38;;;1.67;;
71637;SDS011;59485;43.542;-5.676;2022-10-31T12:31:03;8.18;;;2.83;;
71637;SDS011;59485;43.542;-5.676;2022-10-31T12:37:00;11.30;;;4.33;;
71637;SDS011;59485;43.542;-5.676;2022-10-31T12:45:35;7.40;;;3.17;;
71637;SDS011;59485;43.542;-5.676;2022-10-31T12:48:19;9.80;;;3.50;;
71637;SDS011;59485;43.542;-5.676;2022-10-31T12:51:08;10.23;;;3.57;;
71637;SDS011;59485;43.542;-5.676;2022-10-31T13:02:30;8.25;;;2.33;;
71637;SDS011;59485;43.542;-5.676;2022-10-31T13:07:42;9.20;;;1.88;;
71637;SDS011;59485;43.542;-5.676;2022-10-31T13:13:27;9.57;;;2.42;;
71637;SDS011;59485;43.542;-5.676;2022-10-31T13:16:02;7.90;;;2.65;;
71637;SDS011;59485;43.542;-5.676;2022-10-31T13:18:42;6.93;;;2.07;;
71637;SDS011;59485;43.542;-5.676;2022-10-31T13:21:09;4.40;;;1.00;;
71637;SDS011;59485;43.542;-5.676;2022-10-31T13:23:41;5.95;;;1.63;;
71637;SDS011;59485;43.542;-5.676;2022-10-31T13:26:14;7.65;;;0.93;;
71637;SDS011;59485;43.542;-5.676;2022-10-31T13:28:54;7.15;;;1.80;;
71637;SDS011;59485;43.542;-5.676;2022-10-31T13:31:30;5.03;;;1.47;;
71637;SDS011;59485;43.542;-5.676;2022-10-31T13:33:58;7.47;;;1.50;;
71637;SDS011;59485;43.542;-5.676;2022-10-31T13:36:40;8.27;;;2.50;;
71637;SDS011;59485;43.542;-5.676;2022-10-31T13:44:29;7.07;;;2.17;;
71637;SDS011;59485;43.542;-5.676;2022-10-31T13:46:56;6.13;;;1.13;;
71637;SDS011;59485;43.542;-5.676;2022-10-31T13:54:36;6.28;;;1.35;;
71637;SDS011;59485;43.542;-5.676;2022-10-31T13:57:06;4.40;;;1.25;;
71637;SDS011;59485;43.542;-5.676;2022-10-31T13:59:53;4.82;;;1.15;;
71637;SDS011;59485;43.542;-5.676;2022-10-31T14:02:30;4.85;;;1.30;;
71637;SDS011;59485;43.542;-5.676;2022-10-31T14:05:03;3.60;;;0.90;;
71637;SDS011;59485;43.542;-5.676;2022-10-31T14:07:30;4.00;;;0.85;;
71637;SDS011;59485;43.542;-5.676;2022-10-31T14:12:31;3.22;;;1.15;;
71637;SDS011;59485;43.542;-5.676;2022-10-31T14:20:55;5.32;;;1.02;;
71637;SDS011;59485;43.542;-5.676;2022-10-31T14:28:42;4.63;;;1.02;;
71637;SDS011;59485;43.542;-5.676;2022-10-31T14:39:18;14.93;;;1.80;;
71637;SDS011;59485;43.542;-5.676;2022-10-31T14:41:53;16.20;;;2.42;;
71637;SDS011;59485;43.542;-5.676;2022-10-31T14:47:15;18.90;;;2.38;;
71637;SDS011;59485;43.542;-5.676;2022-10-31T14:52:52;16.77;;;2.03;;
71637;SDS011;59485;43.542;-5.676;2022-10-31T14:55:21;14.18;;;1.88;;
71637;SDS011;59485;43.542;-5.676;2022-10-31T14:57:54;15.85;;;2.30;;
71637;SDS011;59485;43.542;-5.676;2022-10-31T15:00:22;19.00;;;1.77;;
71637;SDS011;59485;43.542;-5.676;2022-10-31T15:02:54;19.40;;;2.05;;
71637;SDS011;59485;43.542;-5.676;2022-10-31T15:05:25;17.13;;;1.73;;
71637;SDS011;59485;43.542;-5.676;2022-10-31T15:07:53;15.57;;;1.73;;
71637;SDS011;59485;43.542;-5.676;2022-10-31T15:10:36;17.00;;;2.67;;
71637;SDS011;59485;43.542;-5.676;2022-10-31T15:13:21;12.90;;;2.08;;
71637;SDS011;59485;43.542;-5.676;2022-10-31T15:15:47;16.65;;;2.03;;
71637;SDS011;59485;43.542;-5.676;2022-10-31T15:18:17;15.43;;;2.03;;
71637;SDS011;59485;43.542;-5.676;2022-10-31T15:20:57;11.63;;;1.50;;
71637;SDS011;59485;43.542;-5.676;2022-10-31T15:23:28;16.50;;;2.15;;
71637;SDS011;59485;43.542;-5.676;2022-10-31T15:26:29;15.23;;;1.80;;
71637;SDS011;59485;43.542;-5.676;2022-10-31T15:29:19;18.40;;;2.40;;
71637;SDS011;59485;43.542;-5.676;2022-10-31T15:31:56;13.13;;;1.80;;
71637;SDS011;59485;43.542;-5.676;2022-10-31T15:34:42;18.05;;;1.52;;
71637;SDS011;59485;43.542;-5.676;2022-10-31T15:37:09;12.73;;;1.60;;
71637;SDS011;59485;43.542;-5.676;2022-10-31T15:39:37;10.47;;;1.47;;
71637;SDS011;59485;43.542;-5.676;2022-10-31T15:42:03;12.80;;;1.30;;
71637;SDS011;59485;43.542;-5.676;2022-10-31T15:47:05;13.67;;;1.30;;
71637;SDS011;59485;43.542;-5.676;2022-10-31T15:49:51;12.38;;;1.40;;
71637;SDS011;59485;43.542;-5.676;2022-10-31T15:52:37;13.45;;;1.67;;
71637;SDS011;59485;43.542;-5.676;2022-10-31T15:58:12;19.58;;;2.75;;
71637;SDS011;59485;43.542;-5.676;2022-10-31T16:00:57;13.27;;;1.80;;
71637;SDS011;59485;43.542;-5.676;2022-10-31T16:03:29;15.63;;;1.57;;
71637;SDS011;59485;43.542;-5.676;2022-10-31T16:05:58;17.48;;;1.83;;
71637;SDS011;59485;43.542;-5.676;2022-10-31T16:08:34;14.45;;;1.83;;
71637;SDS011;59485;43.542;-5.676;2022-10-31T16:13:35;16.30;;;1.95;;
71637;SDS011;59485;43.542;-5.676;2022-10-31T16:16:28;16.27;;;1.93;;
71637;SDS011;59485;43.542;-5.676;2022-10-31T16:18:52;16.50;;;1.95;;
71637;SDS011;59485;43.542;-5.676;2022-10-31T16:24:02;16.88;;;3.22;;
71637;SDS011;59485;43.542;-5.676;2022-10-31T16:27:21;15.45;;;2.03;;
71637;SDS011;59485;43.542;-5.676;2022-10-31T16:30:29;13.70;;;2.00;;
71637;SDS011;59485;43.542;-5.676;2022-10-31T16:39:03;14.05;;;1.55;;
71637;SDS011;59485;43.542;-5.676;2022-10-31T16:41:30;13.45;;;1.65;;
71637;SDS011;59485;43.542;-5.676;2022-10-31T16:44:23;17.33;;;1.83;;
71637;SDS011;59485;43.542;-5.676;2022-10-31T16:49:40;18.13;;;3.38;;
71637;SDS011;59485;43.542;-5.676;2022-10-31T16:52:07;12.25;;;2.47;;
71637;SDS011;59485;43.542;-5.676;2022-10-31T16:54:33;15.40;;;2.20;;
71637;SDS011;59485;43.542;-5.676;2022-10-31T16:56:58;18.92;;;3.00;;
71637;SDS011;59485;43.542;-5.676;2022-10-31T16:59:26;32.65;;;3.75;;
71637;SDS011;59485;43.542;-5.676;2022-10-31T17:01:52;16.20;;;1.87;;
71637;SDS011;59485;43.542;-5.676;2022-10-31T17:04:19;25.10;;;2.33;;
71637;SDS011;59485;43.542;-5.676;2022-10-31T17:06:44;35.33;;;3.87;;
71637;SDS011;59485;43.542;-5.676;2022-10-31T17:09:10;16.27;;;1.50;;
71637;SDS011;59485;43.542;-5.676;2022-10-31T17:11:36;12.38;;;1.50;;
71637;SDS011;59485;43.542;-5.676;2022-10-31T17:14:11;16.73;;;1.70;;
71637;SDS011;59485;43.542;-5.676;2022-10-31T17:16:37;19.85;;;1.73;;
71637;SDS011;59485;43.542;-5.676;2022-10-31T17:19:07;14.43;;;1.67;;
71637;SDS011;59485;43.542;-5.676;2022-10-31T17:21:35;14.83;;;1.80;;
71637;SDS011;59485;43.542;-5.676;2022-10-31T17:24:03;21.48;;;1.90;;
71637;SDS011;59485;43.542;-5.676;2022-10-31T17:26:29;25.20;;;2.45;;
71637;SDS011;59485;43.542;-5.676;2022-10-31T17:28:54;21.63;;;2.63;;
71637;SDS011;59485;43.542;-5.676;2022-10-31T17:31:21;22.43;;;2.13;;
71637;SDS011;59485;43.542;-5.676;2022-10-31T17:33:55;18.55;;;2.42;;
71637;SDS011;59485;43.542;-5.676;2022-10-31T17:36:21;27.15;;;3.65;;
71637;SDS011;59485;43.542;-5.676;2022-10-31T17:38:47;17.17;;;1.77;;
71637;SDS011;59485;43.542;-5.676;2022-10-31T17:41:12;19.87;;;2.13;;
71637;SDS011;59485;43.542;-5.676;2022-10-31T17:43:38;17.40;;;2.20;;
71637;SDS011;59485;43.542;-5.676;2022-10-31T17:46:03;17.97;;;2.43;;
71637;SDS011;59485;43.542;-5.676;2022-10-31T17:48:29;17.73;;;1.67;;
71637;SDS011;59485;43.542;-5.676;2022-10-31T17:50:58;18.05;;;1.92;;
71637;SDS011;59485;43.542;-5.676;2022-10-31T17:53:26;17.47;;;1.87;;
71637;SDS011;59485;43.542;-5.676;2022-10-31T17:55:53;17.13;;;1.67;;
71637;SDS011;59485;43.542;-5.676;2022-10-31T17:58:18;17.13;;;3.10;;
71637;SDS011;59485;43.542;-5.676;2022-10-31T18:00:44;15.83;;;2.33;;
71637;SDS011;59485;43.542;-5.676;2022-10-31T18:03:10;21.50;;;3.00;;
71637;SDS011;59485;43.542;-5.676;2022-10-31T18:05:35;17.45;;;2.00;;
71637;SDS011;59485;43.542;-5.676;2022-10-31T18:08:29;20.20;;;1.70;;
71637;SDS011;59485;43.542;-5.676;2022-10-31T18:13:27;15.13;;;2.10;;
71637;SDS011;59485;43.542;-5.676;2022-10-31T18:15:53;12.85;;;2.17;;
71637;SDS011;59485;43.542;-5.676;2022-10-31T18:18:18;19.98;;;2.20;;
71637;SDS011;59485;43.542;-5.676;2022-10-31T18:20:44;23.13;;;2.13;;
71637;SDS011;59485;43.542;-5.676;2022-10-31T18:23:10;28.87;;;4.10;;
71637;SDS011;59485;43.542;-5.676;2022-10-31T18:25:36;19.65;;;2.88;;
71637;SDS011;59485;43.542;-5.676;2022-10-31T18:30:39;23.63;;;2.42;;
71637;SDS011;59485;43.542;-5.676;2022-10-31T18:33:06;15.88;;;1.38;;
71637;SDS011;59485;43.542;-5.676;2022-10-31T18:35:34;16.40;;;2.20;;
71637;SDS011;59485;43.542;-5.676;2022-10-31T18:38:03;24.00;;;3.00;;
71637;SDS011;59485;43.542;-5.676;2022-10-31T18:40:30;20.70;;;2.08;;
71637;SDS011;59485;43.542;-5.676;2022-10-31T18:42:56;17.58;;;1.60;;
71637;SDS011;59485;43.542;-5.676;2022-10-31T18:45:22;26.80;;;3.17;;
71637;SDS011;59485;43.542;-5.676;2022-10-31T18:47:49;14.75;;;1.80;;
71637;SDS011;59485;43.542;-5.676;2022-10-31T18:50:15;16.77;;;1.80;;
71637;SDS011;59485;43.542;-5.676;2022-10-31T18:52:40;20.27;;;2.05;;
71637;SDS011;59485;43.542;-5.676;2022-10-31T18:55:06;21.93;;;2.40;;
71637;SDS011;59485;43.542;-5.676;2022-10-31T18:57:32;18.15;;;2.08;;
71637;SDS011;59485;43.542;-5.676;2022-10-31T18:59:57;17.67;;;1.63;;
71637;SDS011;59485;43.542;-5.676;2022-10-31T19:02:23;19.48;;;2.88;;
71637;SDS011;59485;43.542;-5.676;2022-10-31T19:04:48;23.47;;;2.93;;
71637;SDS011;59485;43.542;-5.676;2022-10-31T19:07:14;18.60;;;2.67;;
71637;SDS011;59485;43.542;-5.676;2022-10-31T19:09:39;11.03;;;1.70;;
71637;SDS011;59485;43.542;-5.676;2022-10-31T19:12:05;13.70;;;1.67;;
71637;SDS011;59485;43.542;-5.676;2022-10-31T19:14:31;15.83;;;1.80;;
71637;SDS011;59485;43.542;-5.676;2022-10-31T19:16:56;15.15;;;1.52;;
71637;SDS011;59485;43.542;-5.676;2022-10-31T19:19:22;13.90;;;1.87;;
71637;SDS011;59485;43.542;-5.676;2022-10-31T19:21:47;19.20;;;2.27;;
71637;SDS011;59485;43.542;-5.676;2022-10-31T19:24:13;17.55;;;2.13;;
71637;SDS011;59485;43.542;-5.676;2022-10-31T19:26:40;16.15;;;1.98;;
71637;SDS011;59485;43.542;-5.676;2022-10-31T19:29:05;16.20;;;2.03;;
71637;SDS011;59485;43.542;-5.676;2022-10-31T19:31:37;19.30;;;2.80;;
71637;SDS011;59485;43.542;-5.676;2022-10-31T19:34:02;15.27;;;2.33;;
71637;SDS011;59485;43.542;-5.676;2022-10-31T19:36:28;21.17;;;3.37;;
71637;SDS011;59485;43.542;-5.676;2022-10-31T19:38:55;21.50;;;2.67;;
71637;SDS011;59485;43.542;-5.676;2022-10-31T19:41:22;24.20;;;3.25;;
71637;SDS011;59485;43.542;-5.676;2022-10-31T19:43:50;15.27;;;2.00;;
71637;SDS011;59485;43.542;-5.676;2022-10-31T19:46:17;21.73;;;2.25;;
71637;SDS011;59485;43.542;-5.676;2022-10-31T19:48:44;18.98;;;1.90;;
71637;SDS011;59485;43.542;-5.676;2022-10-31T19:51:17;19.55;;;2.50;;